sensor_id;sensor_type;location;lat;lon;timestamp;P1;durP1;ratioP1;P2;durP2;ratioP2
54139;SDS011;40046;53.254;5.900;2024-01-30T00:02:12;26.45;;;22.23;;
54139;SDS011;40046;53.254;5.900;2024-01-30T00:04:38;29.83;;;22.70;;
54139;SDS011;40046;53.254;5.900;2024-01-30T00:07:05;30.63;;;23.95;;
54139;SDS011;40046;53.254;5.900;2024-01-30T00:09:31;26.13;;;22.80;;
54139;SDS011;40046;53.254;5.900;2024-01-30T00:11:57;26.10;;;21.58;;
54139;SDS011;40046;53.254;5.900;2024-01-30T00:14:23;29.88;;;24.50;;
54139;SDS011;40046;53.254;5.900;2024-01-30T00:16:50;30.58;;;23.60;;
54139;SDS011;40046;53.254;5.900;2024-01-30T00:19:17;28.85;;;23.38;;
54139;SDS011;40046;53.254;5.900;2024-01-30T00:21:43;30.15;;;23.98;;
54139;SDS011;40046;53.254;5.900;2024-01-30T00:24:09;30.48;;;25.45;;
54139;SDS011;40046;53.254;5.900;2024-01-30T00:26:35;31.60;;;25.55;;
54139;SDS011;40046;53.254;5.900;2024-01-30T00:29:01;32.75;;;25.77;;
54139;SDS011;40046;53.254;5.900;2024-01-30T00:31:27;31.38;;;26.65;;
54139;SDS011;40046;53.254;5.900;2024-01-30T00:33:54;32.45;;;26.17;;
54139;SDS011;40046;53.254;5.900;2024-01-30T00:36:20;29.63;;;24.60;;
54139;SDS011;40046;53.254;5.900;2024-01-30T00:38:47;36.83;;;25.58;;
54139;SDS011;40046;53.254;5.900;2024-01-30T00:41:13;31.25;;;26.38;;
54139;SDS011;40046;53.254;5.900;2024-01-30T00:43:39;28.98;;;24.58;;
54139;SDS011;40046;53.254;5.900;2024-01-30T00:46:05;31.80;;;23.20;;
54139;SDS011;40046;53.254;5.900;2024-01-30T00:48:32;30.02;;;24.42;;
54139;SDS011;40046;53.254;5.900;2024-01-30T00:50:58;30.15;;;24.27;;
54139;SDS011;40046;53.254;5.900;2024-01-30T00:53:24;30.55;;;24.30;;
54139;SDS011;40046;53.254;5.900;2024-01-30T00:55:50;29.50;;;24.67;;
54139;SDS011;40046;53.254;5.900;2024-01-30T00:58:16;32.92;;;25.60;;
54139;SDS011;40046;53.254;5.900;2024-01-30T01:00:44;29.85;;;24.45;;
54139;SDS011;40046;53.254;5.900;2024-01-30T01:03:10;33.72;;;25.50;;
54139;SDS011;40046;53.254;5.900;2024-01-30T01:05:36;32.05;;;24.67;;
54139;SDS011;40046;53.254;5.900;2024-01-30T01:08:02;36.80;;;26.73;;
54139;SDS011;40046;53.254;5.900;2024-01-30T01:10:29;29.45;;;24.10;;
54139;SDS011;40046;53.254;5.900;2024-01-30T01:12:55;31.88;;;24.48;;
54139;SDS011;40046;53.254;5.900;2024-01-30T01:15:21;31.15;;;25.90;;
54139;SDS011;40046;53.254;5.900;2024-01-30T01:17:47;30.80;;;25.27;;
54139;SDS011;40046;53.254;5.900;2024-01-30T01:20:14;35.00;;;26.48;;
54139;SDS011;40046;53.254;5.900;2024-01-30T01:22:40;30.80;;;25.83;;
54139;SDS011;40046;53.254;5.900;2024-01-30T01:25:06;35.03;;;27.20;;
54139;SDS011;40046;53.254;5.900;2024-01-30T01:27:33;31.15;;;25.50;;
54139;SDS011;40046;53.254;5.900;2024-01-30T01:30:03;31.60;;;25.88;;
54139;SDS011;40046;53.254;5.900;2024-01-30T01:32:31;33.63;;;27.45;;
54139;SDS011;40046;53.254;5.900;2024-01-30T01:34:57;30.95;;;26.58;;
54139;SDS011;40046;53.254;5.900;2024-01-30T01:37:23;36.13;;;25.70;;
54139;SDS011;40046;53.254;5.900;2024-01-30T01:39:52;35.05;;;26.77;;
54139;SDS011;40046;53.254;5.900;2024-01-30T01:42:18;36.22;;;27.83;;
54139;SDS011;40046;53.254;5.900;2024-01-30T01:44:44;37.55;;;27.17;;
54139;SDS011;40046;53.254;5.900;2024-01-30T01:47:10;37.30;;;27.55;;
54139;SDS011;40046;53.254;5.900;2024-01-30T01:49:37;34.92;;;28.27;;
54139;SDS011;40046;53.254;5.900;2024-01-30T01:52:03;32.10;;;27.30;;
54139;SDS011;40046;53.254;5.900;2024-01-30T01:54:29;29.48;;;24.77;;
54139;SDS011;40046;53.254;5.900;2024-01-30T01:56:56;32.78;;;25.17;;
54139;SDS011;40046;53.254;5.900;2024-01-30T01:59:22;33.55;;;26.02;;
54139;SDS011;40046;53.254;5.900;2024-01-30T02:01:49;32.50;;;26.23;;
54139;SDS011;40046;53.254;5.900;2024-01-30T02:04:17;32.25;;;25.58;;
54139;SDS011;40046;53.254;5.900;2024-01-30T02:06:43;33.85;;;27.38;;
54139;SDS011;40046;53.254;5.900;2024-01-30T02:09:09;33.88;;;26.98;;
54139;SDS011;40046;53.254;5.900;2024-01-30T02:11:35;32.97;;;26.13;;
54139;SDS011;40046;53.254;5.900;2024-01-30T02:14:04;32.30;;;26.35;;
54139;SDS011;40046;53.254;5.900;2024-01-30T02:16:31;35.65;;;25.70;;
54139;SDS011;40046;53.254;5.900;2024-01-30T02:18:57;33.50;;;25.38;;
54139;SDS011;40046;53.254;5.900;2024-01-30T02:21:23;33.55;;;25.85;;
54139;SDS011;40046;53.254;5.900;2024-01-30T02:23:50;30.17;;;24.35;;
54139;SDS011;40046;53.254;5.900;2024-01-30T02:26:16;31.75;;;24.92;;
54139;SDS011;40046;53.254;5.900;2024-01-30T02:28:44;33.53;;;25.13;;
54139;SDS011;40046;53.254;5.900;2024-01-30T02:31:10;30.23;;;24.55;;
54139;SDS011;40046;53.254;5.900;2024-01-30T02:33:36;34.00;;;24.15;;
54139;SDS011;40046;53.254;5.900;2024-01-30T02:36:02;34.15;;;25.42;;
54139;SDS011;40046;53.254;5.900;2024-01-30T02:38:28;32.58;;;24.80;;
54139;SDS011;40046;53.254;5.900;2024-01-30T02:40:55;37.38;;;29.30;;
54139;SDS011;40046;53.254;5.900;2024-01-30T02:43:21;34.92;;;25.60;;
54139;SDS011;40046;53.254;5.900;2024-01-30T02:45:47;29.75;;;24.90;;
54139;SDS011;40046;53.254;5.900;2024-01-30T02:48:14;33.97;;;25.08;;
54139;SDS011;40046;53.254;5.900;2024-01-30T02:50:40;31.27;;;26.00;;
54139;SDS011;40046;53.254;5.900;2024-01-30T02:53:06;32.90;;;25.60;;
54139;SDS011;40046;53.254;5.900;2024-01-30T02:55:33;31.42;;;25.48;;
54139;SDS011;40046;53.254;5.900;2024-01-30T02:57:59;31.00;;;24.20;;
54139;SDS011;40046;53.254;5.900;2024-01-30T03:00:25;34.25;;;26.27;;
54139;SDS011;40046;53.254;5.900;2024-01-30T03:02:51;33.15;;;25.13;;
54139;SDS011;40046;53.254;5.900;2024-01-30T03:05:17;31.00;;;24.40;;
54139;SDS011;40046;53.254;5.900;2024-01-30T03:07:44;30.02;;;24.20;;
54139;SDS011;40046;53.254;5.900;2024-01-30T03:10:10;34.20;;;25.17;;
54139;SDS011;40046;53.254;5.900;2024-01-30T03:12:36;30.58;;;24.77;;
54139;SDS011;40046;53.254;5.900;2024-01-30T03:15:02;28.60;;;23.27;;
54139;SDS011;40046;53.254;5.900;2024-01-30T03:17:28;31.40;;;23.48;;
54139;SDS011;40046;53.254;5.900;2024-01-30T03:19:54;30.63;;;23.27;;
54139;SDS011;40046;53.254;5.900;2024-01-30T03:22:20;31.42;;;24.55;;
54139;SDS011;40046;53.254;5.900;2024-01-30T03:24:47;29.92;;;24.30;;
54139;SDS011;40046;53.254;5.900;2024-01-30T03:27:13;33.03;;;24.02;;
54139;SDS011;40046;53.254;5.900;2024-01-30T03:29:39;31.55;;;24.08;;
54139;SDS011;40046;53.254;5.900;2024-01-30T03:32:05;31.58;;;24.33;;
54139;SDS011;40046;53.254;5.900;2024-01-30T03:34:31;31.33;;;24.02;;
54139;SDS011;40046;53.254;5.900;2024-01-30T03:36:57;30.50;;;23.88;;
54139;SDS011;40046;53.254;5.900;2024-01-30T03:39:24;30.73;;;24.40;;
54139;SDS011;40046;53.254;5.900;2024-01-30T03:41:50;31.10;;;24.40;;
54139;SDS011;40046;53.254;5.900;2024-01-30T03:44:16;28.48;;;23.20;;
54139;SDS011;40046;53.254;5.900;2024-01-30T03:46:42;37.35;;;24.55;;
54139;SDS011;40046;53.254;5.900;2024-01-30T03:49:09;28.63;;;23.33;;
54139;SDS011;40046;53.254;5.900;2024-01-30T03:51:35;35.60;;;24.33;;
54139;SDS011;40046;53.254;5.900;2024-01-30T03:54:01;28.40;;;23.80;;
54139;SDS011;40046;53.254;5.900;2024-01-30T03:56:28;33.50;;;24.20;;
54139;SDS011;40046;53.254;5.900;2024-01-30T03:58:54;34.17;;;25.35;;
54139;SDS011;40046;53.254;5.900;2024-01-30T04:01:21;28.05;;;23.80;;
54139;SDS011;40046;53.254;5.900;2024-01-30T04:03:47;32.25;;;24.25;;
54139;SDS011;40046;53.254;5.900;2024-01-30T04:06:13;30.95;;;24.70;;
54139;SDS011;40046;53.254;5.900;2024-01-30T04:08:39;36.65;;;25.63;;
54139;SDS011;40046;53.254;5.900;2024-01-30T04:11:05;29.45;;;24.88;;
54139;SDS011;40046;53.254;5.900;2024-01-30T04:13:34;30.80;;;24.17;;
54139;SDS011;40046;53.254;5.900;2024-01-30T04:16:01;31.77;;;22.42;;
54139;SDS011;40046;53.254;5.900;2024-01-30T04:18:28;29.38;;;21.95;;
54139;SDS011;40046;53.254;5.900;2024-01-30T04:20:54;28.10;;;24.13;;
54139;SDS011;40046;53.254;5.900;2024-01-30T04:23:20;27.13;;;22.67;;
54139;SDS011;40046;53.254;5.900;2024-01-30T04:25:46;29.27;;;22.15;;
54139;SDS011;40046;53.254;5.900;2024-01-30T04:28:13;28.17;;;23.63;;
54139;SDS011;40046;53.254;5.900;2024-01-30T04:30:39;31.40;;;23.10;;
54139;SDS011;40046;53.254;5.900;2024-01-30T04:33:05;30.92;;;23.30;;
54139;SDS011;40046;53.254;5.900;2024-01-30T04:35:32;28.25;;;22.42;;
54139;SDS011;40046;53.254;5.900;2024-01-30T04:37:58;29.17;;;23.08;;
54139;SDS011;40046;53.254;5.900;2024-01-30T04:40:24;26.20;;;20.90;;
54139;SDS011;40046;53.254;5.900;2024-01-30T04:42:50;28.17;;;22.25;;
54139;SDS011;40046;53.254;5.900;2024-01-30T04:45:17;26.75;;;21.73;;
54139;SDS011;40046;53.254;5.900;2024-01-30T04:47:43;24.20;;;20.45;;
54139;SDS011;40046;53.254;5.900;2024-01-30T04:50:09;25.98;;;21.00;;
54139;SDS011;40046;53.254;5.900;2024-01-30T04:52:35;26.13;;;21.17;;
54139;SDS011;40046;53.254;5.900;2024-01-30T04:55:01;27.23;;;21.60;;
54139;SDS011;40046;53.254;5.900;2024-01-30T04:57:28;28.17;;;21.38;;
54139;SDS011;40046;53.254;5.900;2024-01-30T04:59:54;25.88;;;20.95;;
54139;SDS011;40046;53.254;5.900;2024-01-30T05:02:20;26.17;;;20.90;;
54139;SDS011;40046;53.254;5.900;2024-01-30T05:04:46;23.77;;;20.35;;
54139;SDS011;40046;53.254;5.900;2024-01-30T05:07:12;23.88;;;19.67;;
54139;SDS011;40046;53.254;5.900;2024-01-30T05:09:39;22.05;;;19.50;;
54139;SDS011;40046;53.254;5.900;2024-01-30T05:12:05;23.83;;;20.95;;
54139;SDS011;40046;53.254;5.900;2024-01-30T05:14:31;25.98;;;19.77;;
54139;SDS011;40046;53.254;5.900;2024-01-30T05:16:57;26.90;;;19.90;;
54139;SDS011;40046;53.254;5.900;2024-01-30T05:19:23;24.52;;;19.70;;
54139;SDS011;40046;53.254;5.900;2024-01-30T05:21:49;24.35;;;19.00;;
54139;SDS011;40046;53.254;5.900;2024-01-30T05:24:16;24.05;;;19.00;;
54139;SDS011;40046;53.254;5.900;2024-01-30T05:26:42;25.95;;;18.73;;
54139;SDS011;40046;53.254;5.900;2024-01-30T05:29:08;26.05;;;20.35;;
54139;SDS011;40046;53.254;5.900;2024-01-30T05:31:34;23.95;;;19.15;;
54139;SDS011;40046;53.254;5.900;2024-01-30T05:34:01;27.77;;;20.85;;
54139;SDS011;40046;53.254;5.900;2024-01-30T05:36:27;23.58;;;18.98;;
54139;SDS011;40046;53.254;5.900;2024-01-30T05:38:53;24.80;;;21.40;;
54139;SDS011;40046;53.254;5.900;2024-01-30T05:41:19;25.67;;;20.20;;
54139;SDS011;40046;53.254;5.900;2024-01-30T05:43:48;23.67;;;18.52;;
54139;SDS011;40046;53.254;5.900;2024-01-30T05:46:15;22.75;;;18.25;;
54139;SDS011;40046;53.254;5.900;2024-01-30T05:48:41;25.45;;;19.00;;
54139;SDS011;40046;53.254;5.900;2024-01-30T05:51:07;24.85;;;19.90;;
54139;SDS011;40046;53.254;5.900;2024-01-30T05:53:34;23.55;;;19.15;;
54139;SDS011;40046;53.254;5.900;2024-01-30T05:56:03;26.27;;;19.30;;
54139;SDS011;40046;53.254;5.900;2024-01-30T05:58:29;24.63;;;17.30;;
54139;SDS011;40046;53.254;5.900;2024-01-30T06:00:58;23.58;;;19.10;;
54139;SDS011;40046;53.254;5.900;2024-01-30T06:03:24;24.80;;;19.27;;
54139;SDS011;40046;53.254;5.900;2024-01-30T06:05:51;26.38;;;19.17;;
54139;SDS011;40046;53.254;5.900;2024-01-30T06:08:17;25.63;;;20.38;;
54139;SDS011;40046;53.254;5.900;2024-01-30T06:10:43;25.27;;;20.88;;
54139;SDS011;40046;53.254;5.900;2024-01-30T06:13:09;23.85;;;20.40;;
54139;SDS011;40046;53.254;5.900;2024-01-30T06:15:36;24.92;;;20.52;;
54139;SDS011;40046;53.254;5.900;2024-01-30T06:18:02;24.10;;;18.75;;
54139;SDS011;40046;53.254;5.900;2024-01-30T06:20:28;22.27;;;18.40;;
54139;SDS011;40046;53.254;5.900;2024-01-30T06:22:54;23.67;;;18.90;;
54139;SDS011;40046;53.254;5.900;2024-01-30T06:25:20;25.60;;;19.60;;
54139;SDS011;40046;53.254;5.900;2024-01-30T06:27:47;25.58;;;19.08;;
54139;SDS011;40046;53.254;5.900;2024-01-30T06:30:13;23.50;;;18.98;;
54139;SDS011;40046;53.254;5.900;2024-01-30T06:32:39;21.30;;;18.42;;
54139;SDS011;40046;53.254;5.900;2024-01-30T06:35:05;24.80;;;18.17;;
54139;SDS011;40046;53.254;5.900;2024-01-30T06:37:32;24.45;;;18.70;;
54139;SDS011;40046;53.254;5.900;2024-01-30T06:39:58;21.90;;;17.30;;
54139;SDS011;40046;53.254;5.900;2024-01-30T06:42:24;23.33;;;17.98;;
54139;SDS011;40046;53.254;5.900;2024-01-30T06:44:57;21.63;;;18.38;;
54139;SDS011;40046;53.254;5.900;2024-01-30T06:47:23;23.58;;;18.05;;
54139;SDS011;40046;53.254;5.900;2024-01-30T06:49:49;23.75;;;17.80;;
54139;SDS011;40046;53.254;5.900;2024-01-30T06:52:15;27.80;;;18.10;;
54139;SDS011;40046;53.254;5.900;2024-01-30T06:54:42;19.33;;;17.13;;
54139;SDS011;40046;53.254;5.900;2024-01-30T06:57:08;25.75;;;18.48;;
54139;SDS011;40046;53.254;5.900;2024-01-30T06:59:37;21.00;;;16.63;;
54139;SDS011;40046;53.254;5.900;2024-01-30T07:02:09;25.20;;;18.83;;
54139;SDS011;40046;53.254;5.900;2024-01-30T07:04:36;22.45;;;18.92;;
54139;SDS011;40046;53.254;5.900;2024-01-30T07:07:03;21.98;;;18.70;;
54139;SDS011;40046;53.254;5.900;2024-01-30T07:09:30;25.48;;;19.48;;
54139;SDS011;40046;53.254;5.900;2024-01-30T07:11:57;23.70;;;17.40;;
54139;SDS011;40046;53.254;5.900;2024-01-30T07:14:23;21.38;;;17.60;;
54139;SDS011;40046;53.254;5.900;2024-01-30T07:16:50;24.40;;;17.67;;
54139;SDS011;40046;53.254;5.900;2024-01-30T07:19:16;26.77;;;18.70;;
54139;SDS011;40046;53.254;5.900;2024-01-30T07:21:42;26.25;;;18.00;;
54139;SDS011;40046;53.254;5.900;2024-01-30T07:24:09;32.60;;;26.40;;
54139;SDS011;40046;53.254;5.900;2024-01-30T07:26:35;24.98;;;19.77;;
54139;SDS011;40046;53.254;5.900;2024-01-30T07:29:01;25.15;;;18.83;;
54139;SDS011;40046;53.254;5.900;2024-01-30T07:31:28;20.95;;;18.00;;
54139;SDS011;40046;53.254;5.900;2024-01-30T07:33:55;23.80;;;18.63;;
54139;SDS011;40046;53.254;5.900;2024-01-30T07:36:21;23.55;;;19.08;;
54139;SDS011;40046;53.254;5.900;2024-01-30T07:38:47;26.17;;;20.98;;
54139;SDS011;40046;53.254;5.900;2024-01-30T07:41:13;24.83;;;17.55;;
54139;SDS011;40046;53.254;5.900;2024-01-30T07:43:39;27.15;;;18.85;;
54139;SDS011;40046;53.254;5.900;2024-01-30T07:46:05;25.20;;;20.33;;
54139;SDS011;40046;53.254;5.900;2024-01-30T07:48:35;28.30;;;21.98;;
54139;SDS011;40046;53.254;5.900;2024-01-30T07:51:01;24.83;;;20.25;;
54139;SDS011;40046;53.254;5.900;2024-01-30T07:53:29;24.40;;;19.20;;
54139;SDS011;40046;53.254;5.900;2024-01-30T07:55:55;28.92;;;21.15;;
54139;SDS011;40046;53.254;5.900;2024-01-30T07:58:21;26.15;;;19.40;;
54139;SDS011;40046;53.254;5.900;2024-01-30T08:00:49;25.15;;;20.17;;
54139;SDS011;40046;53.254;5.900;2024-01-30T08:03:16;28.17;;;20.48;;
54139;SDS011;40046;53.254;5.900;2024-01-30T08:05:43;25.80;;;21.70;;
54139;SDS011;40046;53.254;5.900;2024-01-30T08:08:09;26.33;;;20.08;;
54139;SDS011;40046;53.254;5.900;2024-01-30T08:10:37;26.98;;;19.02;;
54139;SDS011;40046;53.254;5.900;2024-01-30T08:13:03;26.50;;;18.90;;
54139;SDS011;40046;53.254;5.900;2024-01-30T08:15:29;26.17;;;20.17;;
54139;SDS011;40046;53.254;5.900;2024-01-30T08:17:55;24.50;;;18.55;;
54139;SDS011;40046;53.254;5.900;2024-01-30T08:20:23;21.38;;;17.80;;
54139;SDS011;40046;53.254;5.900;2024-01-30T08:22:51;22.23;;;17.33;;
54139;SDS011;40046;53.254;5.900;2024-01-30T08:25:18;22.80;;;17.45;;
54139;SDS011;40046;53.254;5.900;2024-01-30T08:27:44;21.20;;;16.55;;
54139;SDS011;40046;53.254;5.900;2024-01-30T08:30:10;26.65;;;18.55;;
54139;SDS011;40046;53.254;5.900;2024-01-30T08:32:36;25.70;;;18.67;;
54139;SDS011;40046;53.254;5.900;2024-01-30T08:35:03;23.33;;;16.85;;
54139;SDS011;40046;53.254;5.900;2024-01-30T08:37:29;22.52;;;15.90;;
54139;SDS011;40046;53.254;5.900;2024-01-30T08:39:56;21.67;;;16.73;;
54139;SDS011;40046;53.254;5.900;2024-01-30T08:42:22;20.83;;;16.85;;
54139;SDS011;40046;53.254;5.900;2024-01-30T08:44:48;22.85;;;17.23;;
54139;SDS011;40046;53.254;5.900;2024-01-30T08:47:16;27.75;;;21.23;;
54139;SDS011;40046;53.254;5.900;2024-01-30T08:49:43;31.30;;;19.80;;
54139;SDS011;40046;53.254;5.900;2024-01-30T08:52:12;29.67;;;20.20;;
54139;SDS011;40046;53.254;5.900;2024-01-30T08:54:38;23.70;;;17.10;;
54139;SDS011;40046;53.254;5.900;2024-01-30T08:57:05;24.95;;;17.98;;
54139;SDS011;40046;53.254;5.900;2024-01-30T08:59:31;21.33;;;16.60;;
54139;SDS011;40046;53.254;5.900;2024-01-30T09:01:57;29.63;;;19.33;;
54139;SDS011;40046;53.254;5.900;2024-01-30T09:04:24;23.48;;;16.80;;
54139;SDS011;40046;53.254;5.900;2024-01-30T09:06:51;25.30;;;17.10;;
54139;SDS011;40046;53.254;5.900;2024-01-30T09:09:17;29.13;;;17.45;;
54139;SDS011;40046;53.254;5.900;2024-01-30T09:11:44;27.20;;;17.25;;
54139;SDS011;40046;53.254;5.900;2024-01-30T09:14:10;29.27;;;18.00;;
54139;SDS011;40046;53.254;5.900;2024-01-30T09:16:37;29.00;;;15.95;;
54139;SDS011;40046;53.254;5.900;2024-01-30T09:19:03;28.80;;;15.98;;
54139;SDS011;40046;53.254;5.900;2024-01-30T09:21:30;24.40;;;18.25;;
54139;SDS011;40046;53.254;5.900;2024-01-30T09:24:01;28.83;;;20.90;;
54139;SDS011;40046;53.254;5.900;2024-01-30T09:26:28;31.10;;;18.05;;
54139;SDS011;40046;53.254;5.900;2024-01-30T09:28:54;26.52;;;17.92;;
54139;SDS011;40046;53.254;5.900;2024-01-30T09:31:20;25.20;;;16.23;;
54139;SDS011;40046;53.254;5.900;2024-01-30T09:33:46;22.33;;;17.02;;
54139;SDS011;40046;53.254;5.900;2024-01-30T09:36:14;24.40;;;17.45;;
54139;SDS011;40046;53.254;5.900;2024-01-30T09:38:43;24.60;;;15.95;;
54139;SDS011;40046;53.254;5.900;2024-01-30T09:41:09;24.17;;;17.52;;
54139;SDS011;40046;53.254;5.900;2024-01-30T09:43:36;25.50;;;16.10;;
54139;SDS011;40046;53.254;5.900;2024-01-30T09:46:03;23.88;;;15.88;;
54139;SDS011;40046;53.254;5.900;2024-01-30T09:48:32;26.40;;;18.75;;
54139;SDS011;40046;53.254;5.900;2024-01-30T09:50:58;23.35;;;16.50;;
54139;SDS011;40046;53.254;5.900;2024-01-30T09:53:24;26.48;;;15.70;;
54139;SDS011;40046;53.254;5.900;2024-01-30T09:55:51;21.33;;;15.77;;
54139;SDS011;40046;53.254;5.900;2024-01-30T09:58:17;25.08;;;16.27;;
54139;SDS011;40046;53.254;5.900;2024-01-30T10:00:43;30.65;;;15.18;;
54139;SDS011;40046;53.254;5.900;2024-01-30T10:03:10;27.92;;;15.70;;
54139;SDS011;40046;53.254;5.900;2024-01-30T10:05:36;24.05;;;13.93;;
54139;SDS011;40046;53.254;5.900;2024-01-30T10:08:05;21.98;;;12.88;;
54139;SDS011;40046;53.254;5.900;2024-01-30T10:10:33;30.67;;;12.95;;
54139;SDS011;40046;53.254;5.900;2024-01-30T10:13:00;21.70;;;11.80;;
54139;SDS011;40046;53.254;5.900;2024-01-30T10:15:27;21.17;;;12.55;;
54139;SDS011;40046;53.254;5.900;2024-01-30T10:17:54;25.08;;;11.52;;
54139;SDS011;40046;53.254;5.900;2024-01-30T10:20:20;20.35;;;11.48;;
54139;SDS011;40046;53.254;5.900;2024-01-30T10:22:47;18.60;;;11.02;;
54139;SDS011;40046;53.254;5.900;2024-01-30T10:25:14;19.40;;;10.77;;
54139;SDS011;40046;53.254;5.900;2024-01-30T10:27:41;17.95;;;9.15;;
54139;SDS011;40046;53.254;5.900;2024-01-30T10:30:07;16.05;;;8.93;;
54139;SDS011;40046;53.254;5.900;2024-01-30T10:32:34;23.00;;;9.93;;
54139;SDS011;40046;53.254;5.900;2024-01-30T10:35:01;17.02;;;8.75;;
54139;SDS011;40046;53.254;5.900;2024-01-30T10:37:28;17.00;;;8.20;;
54139;SDS011;40046;53.254;5.900;2024-01-30T10:39:57;16.98;;;6.88;;
54139;SDS011;40046;53.254;5.900;2024-01-30T10:42:27;27.40;;;7.07;;
54139;SDS011;40046;53.254;5.900;2024-01-30T10:45:09;15.88;;;6.28;;
54139;SDS011;40046;53.254;5.900;2024-01-30T10:47:57;22.70;;;7.68;;
54139;SDS011;40046;53.254;5.900;2024-01-30T10:50:24;26.90;;;6.13;;
54139;SDS011;40046;53.254;5.900;2024-01-30T10:52:51;20.30;;;6.30;;
54139;SDS011;40046;53.254;5.900;2024-01-30T10:55:17;17.00;;;6.43;;
54139;SDS011;40046;53.254;5.900;2024-01-30T10:57:44;21.65;;;6.60;;
54139;SDS011;40046;53.254;5.900;2024-01-30T11:00:10;21.65;;;6.20;;
54139;SDS011;40046;53.254;5.900;2024-01-30T11:02:43;19.17;;;5.45;;
54139;SDS011;40046;53.254;5.900;2024-01-30T11:05:09;16.38;;;4.18;;
54139;SDS011;40046;53.254;5.900;2024-01-30T11:07:38;19.55;;;5.10;;
54139;SDS011;40046;53.254;5.900;2024-01-30T11:10:04;16.02;;;5.22;;
54139;SDS011;40046;53.254;5.900;2024-01-30T11:12:37;14.60;;;4.18;;
54139;SDS011;40046;53.254;5.900;2024-01-30T11:15:06;20.15;;;3.78;;
54139;SDS011;40046;53.254;5.900;2024-01-30T11:17:50;14.20;;;3.30;;
54139;SDS011;40046;53.254;5.900;2024-01-30T11:20:23;10.02;;;2.70;;
54139;SDS011;40046;53.254;5.900;2024-01-30T11:22:52;9.82;;;2.45;;
54139;SDS011;40046;53.254;5.900;2024-01-30T11:25:22;8.65;;;2.15;;
54139;SDS011;40046;53.254;5.900;2024-01-30T11:27:54;9.27;;;2.40;;
54139;SDS011;40046;53.254;5.900;2024-01-30T11:35:25;10.82;;;2.30;;
54139;SDS011;40046;53.254;5.900;2024-01-30T11:37:51;8.88;;;1.95;;
54139;SDS011;40046;53.254;5.900;2024-01-30T11:40:18;9.05;;;2.30;;
54139;SDS011;40046;53.254;5.900;2024-01-30T11:42:45;8.32;;;2.05;;
54139;SDS011;40046;53.254;5.900;2024-01-30T11:45:11;11.48;;;2.45;;
54139;SDS011;40046;53.254;5.900;2024-01-30T11:47:37;7.53;;;2.08;;
54139;SDS011;40046;53.254;5.900;2024-01-30T11:50:04;8.00;;;1.80;;
54139;SDS011;40046;53.254;5.900;2024-01-30T11:52:33;7.60;;;2.08;;
54139;SDS011;40046;53.254;5.900;2024-01-30T11:55:00;12.80;;;2.47;;
54139;SDS011;40046;53.254;5.900;2024-01-30T11:57:26;6.95;;;2.25;;
54139;SDS011;40046;53.254;5.900;2024-01-30T11:59:53;10.10;;;2.42;;
54139;SDS011;40046;53.254;5.900;2024-01-30T12:02:19;7.97;;;2.42;;
54139;SDS011;40046;53.254;5.900;2024-01-30T12:04:45;11.00;;;2.45;;
54139;SDS011;40046;53.254;5.900;2024-01-30T12:07:11;8.82;;;2.25;;
54139;SDS011;40046;53.254;5.900;2024-01-30T12:09:41;9.02;;;2.35;;
54139;SDS011;40046;53.254;5.900;2024-01-30T12:12:07;7.85;;;2.30;;
54139;SDS011;40046;53.254;5.900;2024-01-30T12:14:40;8.98;;;2.60;;
54139;SDS011;40046;53.254;5.900;2024-01-30T12:17:06;11.38;;;2.80;;
54139;SDS011;40046;53.254;5.900;2024-01-30T12:19:33;7.95;;;2.10;;
54139;SDS011;40046;53.254;5.900;2024-01-30T12:21:59;7.72;;;2.42;;
54139;SDS011;40046;53.254;5.900;2024-01-30T12:24:26;9.50;;;2.30;;
54139;SDS011;40046;53.254;5.900;2024-01-30T12:26:56;8.43;;;2.65;;
54139;SDS011;40046;53.254;5.900;2024-01-30T12:29:22;16.17;;;3.22;;
54139;SDS011;40046;53.254;5.900;2024-01-30T12:31:48;5.82;;;1.40;;
54139;SDS011;40046;53.254;5.900;2024-01-30T12:34:18;9.75;;;2.15;;
54139;SDS011;40046;53.254;5.900;2024-01-30T12:36:46;9.70;;;2.00;;
54139;SDS011;40046;53.254;5.900;2024-01-30T12:39:14;8.55;;;2.08;;
54139;SDS011;40046;53.254;5.900;2024-01-30T12:41:40;14.32;;;2.60;;
54139;SDS011;40046;53.254;5.900;2024-01-30T12:44:07;9.18;;;2.47;;
54139;SDS011;40046;53.254;5.900;2024-01-30T12:46:34;10.43;;;2.50;;
54139;SDS011;40046;53.254;5.900;2024-01-30T12:49:00;9.18;;;2.20;;
54139;SDS011;40046;53.254;5.900;2024-01-30T12:51:26;10.75;;;2.85;;
54139;SDS011;40046;53.254;5.900;2024-01-30T12:53:52;6.47;;;1.90;;
54139;SDS011;40046;53.254;5.900;2024-01-30T12:56:18;7.60;;;2.20;;
54139;SDS011;40046;53.254;5.900;2024-01-30T12:58:45;8.27;;;2.10;;
54139;SDS011;40046;53.254;5.900;2024-01-30T13:01:11;8.27;;;2.58;;
54139;SDS011;40046;53.254;5.900;2024-01-30T13:03:37;7.10;;;2.28;;
54139;SDS011;40046;53.254;5.900;2024-01-30T13:06:03;7.75;;;2.25;;
54139;SDS011;40046;53.254;5.900;2024-01-30T13:08:30;4.95;;;1.80;;
54139;SDS011;40046;53.254;5.900;2024-01-30T13:10:56;5.25;;;1.77;;
54139;SDS011;40046;53.254;5.900;2024-01-30T13:13:22;4.68;;;1.58;;
54139;SDS011;40046;53.254;5.900;2024-01-30T13:15:48;7.28;;;2.05;;
54139;SDS011;40046;53.254;5.900;2024-01-30T13:18:15;5.20;;;2.03;;
54139;SDS011;40046;53.254;5.900;2024-01-30T13:20:41;10.13;;;1.85;;
54139;SDS011;40046;53.254;5.900;2024-01-30T13:23:07;8.25;;;3.50;;
54139;SDS011;40046;53.254;5.900;2024-01-30T13:25:33;5.55;;;1.77;;
54139;SDS011;40046;53.254;5.900;2024-01-30T13:27:59;8.02;;;2.15;;
54139;SDS011;40046;53.254;5.900;2024-01-30T13:30:26;6.20;;;2.60;;
54139;SDS011;40046;53.254;5.900;2024-01-30T13:32:52;3.03;;;1.10;;
54139;SDS011;40046;53.254;5.900;2024-01-30T13:35:19;4.28;;;1.15;;
54139;SDS011;40046;53.254;5.900;2024-01-30T13:37:45;4.40;;;1.25;;
54139;SDS011;40046;53.254;5.900;2024-01-30T13:40:13;4.90;;;1.33;;
54139;SDS011;40046;53.254;5.900;2024-01-30T13:42:41;9.32;;;1.58;;
54139;SDS011;40046;53.254;5.900;2024-01-30T13:45:07;4.50;;;1.40;;
54139;SDS011;40046;53.254;5.900;2024-01-30T13:47:35;6.18;;;1.77;;
54139;SDS011;40046;53.254;5.900;2024-01-30T13:50:01;5.22;;;1.90;;
54139;SDS011;40046;53.254;5.900;2024-01-30T13:52:28;6.68;;;2.40;;
54139;SDS011;40046;53.254;5.900;2024-01-30T13:54:54;6.63;;;2.30;;
54139;SDS011;40046;53.254;5.900;2024-01-30T13:57:20;6.80;;;1.90;;
54139;SDS011;40046;53.254;5.900;2024-01-30T13:59:46;7.35;;;2.28;;
54139;SDS011;40046;53.254;5.900;2024-01-30T14:02:12;6.18;;;2.10;;
54139;SDS011;40046;53.254;5.900;2024-01-30T14:04:38;6.70;;;2.28;;
54139;SDS011;40046;53.254;5.900;2024-01-30T14:07:05;8.70;;;2.38;;
54139;SDS011;40046;53.254;5.900;2024-01-30T14:09:31;8.40;;;2.15;;
54139;SDS011;40046;53.254;5.900;2024-01-30T14:11:57;13.52;;;2.40;;
54139;SDS011;40046;53.254;5.900;2024-01-30T14:14:24;6.97;;;2.30;;
54139;SDS011;40046;53.254;5.900;2024-01-30T14:16:50;6.68;;;2.78;;
54139;SDS011;40046;53.254;5.900;2024-01-30T14:19:16;6.68;;;2.92;;
54139;SDS011;40046;53.254;5.900;2024-01-30T14:21:42;5.82;;;1.92;;
54139;SDS011;40046;53.254;5.900;2024-01-30T14:24:08;7.68;;;3.30;;
54139;SDS011;40046;53.254;5.900;2024-01-30T14:26:34;7.45;;;3.60;;
54139;SDS011;40046;53.254;5.900;2024-01-30T14:29:01;11.25;;;2.90;;
54139;SDS011;40046;53.254;5.900;2024-01-30T14:31:28;6.97;;;3.33;;